CTV251 WIII-WARR
Flight info
| Callsign | CTV251 |
|---|---|
| Flight time | N/A |
| Altitude | 29000 |
| Route | CA2C/25L CA T3 BA |
| Aircraft | A20N/M-SDE2E3FGHIRWXY/LB1 |
Departure
| Time | N/A |
|---|---|
| Airport | Soekarno-Hatta International Airport (WIII) |
Arrival
| Time | 2026-05-04 15:38 |
|---|---|
| Airport | Juanda International Airport (WARR) |
| Time | Latitude | Longitude | Altitude | Speed | Heading |
|---|---|---|---|---|---|
| 2026-05-04 15:18 | -6.99194 | 111.37668 | 24679 ft | 426 kts | 91° |
| 2026-05-04 15:18 | -6.99260 | 111.39899 | 24204 ft | 425 kts | 94° |
| 2026-05-04 15:18 | -6.99628 | 111.42829 | 23617 ft | 422 kts | 101° |
| 2026-05-04 15:19 | -7.01124 | 111.48435 | 22430 ft | 412 kts | 106° |
| 2026-05-04 15:19 | -7.01908 | 111.51192 | 21841 ft | 407 kts | 105° |
| 2026-05-04 15:19 | -7.03442 | 111.56621 | 20697 ft | 399 kts | 105° |
| 2026-05-04 15:20 | -7.04199 | 111.59297 | 20099 ft | 396 kts | 105° |
| 2026-05-04 15:20 | -7.04950 | 111.61951 | 19510 ft | 394 kts | 105° |
| 2026-05-04 15:20 | -7.05697 | 111.64589 | 18943 ft | 391 kts | 105° |
| 2026-05-04 15:20 | -7.06433 | 111.67190 | 18373 ft | 389 kts | 105° |
| 2026-05-04 15:21 | -7.07171 | 111.69797 | 17749 ft | 386 kts | 105° |
| 2026-05-04 15:21 | -7.07902 | 111.72379 | 17234 ft | 380 kts | 105° |
| 2026-05-04 15:21 | -7.09337 | 111.77451 | 16117 ft | 373 kts | 105° |
| 2026-05-04 15:22 | -7.10044 | 111.79953 | 15573 ft | 369 kts | 105° |
| 2026-05-04 15:22 | -7.10742 | 111.82424 | 15027 ft | 366 kts | 105° |
| 2026-05-04 15:22 | -7.12112 | 111.87270 | 14262 ft | 344 kts | 105° |
| 2026-05-04 15:23 | -7.12740 | 111.89488 | 14092 ft | 323 kts | 105° |
| 2026-05-04 15:23 | -7.13336 | 111.91600 | 13928 ft | 304 kts | 105° |
| 2026-05-04 15:23 | -7.13897 | 111.93582 | 13764 ft | 287 kts | 105° |
| 2026-05-04 15:23 | -7.14435 | 111.95489 | 13426 ft | 279 kts | 105° |
| 2026-05-04 15:24 | -7.15447 | 111.99076 | 13225 ft | 255 kts | 105° |
| 2026-05-04 15:24 | -7.16722 | 112.02337 | 12697 ft | 258 kts | 112° |
| 2026-05-04 15:25 | -7.17472 | 112.04081 | 12422 ft | 283 kts | 112° |
| 2026-05-04 15:25 | -7.18268 | 112.05937 | 12227 ft | 289 kts | 112° |
| 2026-05-04 15:25 | -7.19054 | 112.07771 | 12169 ft | 281 kts | 112° |
| 2026-05-04 15:26 | -7.20585 | 112.11348 | 11534 ft | 277 kts | 112° |
| 2026-05-04 15:26 | -7.21335 | 112.13101 | 11168 ft | 276 kts | 112° |
| 2026-05-04 15:26 | -7.22853 | 112.16653 | 10441 ft | 273 kts | 112° |
| 2026-05-04 15:27 | -7.23602 | 112.18407 | 10085 ft | 272 kts | 112° |
| 2026-05-04 15:27 | -7.25084 | 112.21875 | 9366 ft | 270 kts | 112° |
| 2026-05-04 15:28 | -7.26558 | 112.25323 | 8643 ft | 267 kts | 112° |
| 2026-05-04 15:28 | -7.27289 | 112.27036 | 8271 ft | 265 kts | 112° |
| 2026-05-04 15:28 | -7.28743 | 112.30440 | 7555 ft | 263 kts | 112° |
| 2026-05-04 15:29 | -7.29458 | 112.32133 | 7201 ft | 262 kts | 110° |
| 2026-05-04 15:30 | -7.30996 | 112.39221 | 5838 ft | 256 kts | 101° |
| 2026-05-04 15:30 | -7.32047 | 112.44430 | 4875 ft | 251 kts | 101° |
| 2026-05-04 15:31 | -7.32742 | 112.47876 | 4217 ft | 249 kts | 102° |
| 2026-05-04 15:31 | -7.33079 | 112.49552 | 3960 ft | 245 kts | 102° |
| 2026-05-04 15:32 | -7.34031 | 112.54256 | 3716 ft | 212 kts | 101° |
| 2026-05-04 15:32 | -7.34507 | 112.56995 | 3592 ft | 182 kts | 99° |
| 2026-05-04 15:33 | -7.34881 | 112.59329 | 3346 ft | 160 kts | 99° |
| 2026-05-04 15:34 | -7.35411 | 112.62637 | 2764 ft | 159 kts | 99° |
| 2026-05-04 15:34 | -7.35587 | 112.63731 | 2567 ft | 159 kts | 99° |
| 2026-05-04 15:34 | -7.35936 | 112.65909 | 2178 ft | 156 kts | 99° |
| 2026-05-04 15:35 | -7.36250 | 112.67869 | 1790 ft | 129 kts | 98° |
| 2026-05-04 15:35 | -7.36393 | 112.68762 | 1636 ft | 132 kts | 99° |
| 2026-05-04 15:35 | -7.36538 | 112.69665 | 1461 ft | 130 kts | 99° |
| 2026-05-04 15:36 | -7.36828 | 112.71470 | 1131 ft | 131 kts | 99° |
| 2026-05-04 15:36 | -7.36973 | 112.72375 | 970 ft | 131 kts | 99° |
| 2026-05-04 15:36 | -7.37117 | 112.73272 | 806 ft | 129 kts | 99° |
| 2026-05-04 15:37 | -7.37256 | 112.74156 | 648 ft | 127 kts | 99° |
| 2026-05-04 15:37 | -7.37392 | 112.75026 | 506 ft | 127 kts | 99° |
| 2026-05-04 15:37 | -7.37535 | 112.75903 | 360 ft | 126 kts | 97° |
| 2026-05-04 15:37 | -7.37680 | 112.76777 | 202 ft | 126 kts | 98° |
| 2026-05-04 15:38 | -7.37818 | 112.77641 | 16 ft | 122 kts | 99° |
| 2026-05-04 15:38 | -7.37927 | 112.78337 | 8 ft | 74 kts | 99° |
| 2026-05-04 15:38 | -7.37995 | 112.78748 | 11 ft | 55 kts | 99° |
| 2026-05-04 15:38 | -7.38049 | 112.79087 | 11 ft | 36 kts | 99° |
| 2026-05-04 15:39 | -7.38038 | 112.79255 | 10 ft | 21 kts | 70° |
| 2026-05-04 15:39 | -7.37992 | 112.79383 | 10 ft | 19 kts | 70° |
| 2026-05-04 15:39 | -7.37932 | 112.79413 | 9 ft | 7 kts | 4° |
| 2026-05-04 15:40 | -7.37869 | 112.79421 | 9 ft | 11 kts | 8° |
| 2026-05-04 15:40 | -7.37781 | 112.79437 | 10 ft | 13 kts | 9° |
| 2026-05-04 15:40 | -7.37695 | 112.79452 | 9 ft | 10 kts | 6° |
| 2026-05-04 15:40 | -7.37671 | 112.79407 | 9 ft | 10 kts | 277° |
| 2026-05-04 15:41 | -7.37659 | 112.79330 | 9 ft | 13 kts | 278° |
| 2026-05-04 15:41 | -7.37656 | 112.79309 | 9 ft | 1 kts | 278° |
| 2026-05-04 15:41 | -7.37649 | 112.79293 | 9 ft | 4 kts | 301° |
| 2026-05-04 15:41 | -7.37614 | 112.79283 | 9 ft | 7 kts | 356° |
| 2026-05-04 15:42 | -7.37568 | 112.79292 | 9 ft | 5 kts | 9° |
| 2026-05-04 15:42 | -7.37559 | 112.79293 | 9 ft | 0 kts | 9° |